Latest Weather Observations for Avalon

IDV60801

Issued at 6:05 pm EDT Sunday 26 October 2014 (issued every 30 minutes, with the page automatically refreshed every 10 minutes)

About weather observations | Map of weather stations | Latest weather observations for VIC | Other Formats
Station Details ID: 087113 Name: AVALON AIRPORT Lat: -38.03 Lon: 144.48 Height: 10.6 m
Data from the previous 72 hours. | See also: Recent months at Avalon
Date/Time
EDT
Temp
°C
App
Temp
°C
Dew
Point
Rel
Hum
%
Delta-T
°C
Wind Press
QNH
hPa
Press
MSL
hPa
Rain
since 9 am
mm
Dir
 
Spd
km/h
Gust
km/h
Spd
kts
Gust
kts
26/06:00pm 18.3 15.6 10.4 60 4.2 E 15 19 8 10 1009.3 1009.3 0.0
26/05:30pm 17.9 15.1 11.5 66 3.5 ESE 17 20 9 11 1009.5 1009.5 0.0
26/05:00pm 18.0 14.2 11.1 64 3.7 ESE 22 28 12 15 1009.7 1009.7 0.0
26/04:30pm 18.2 15.1 11.7 66 3.6 ESE 19 22 10 12 1010.4 1010.4 0.0
26/04:00pm 18.0 14.0 10.6 62 4.0 ESE 22 28 12 15 1010.8 1010.8 0.0
26/03:30pm 19.1 15.7 10.6 58 4.6 E 19 24 10 13 1010.7 1010.7 0.0
26/03:00pm 17.2 13.6 10.6 65 3.5 ESE 20 24 11 13 1011.6 1011.6 0.0
26/02:30pm 17.5 13.9 9.9 61 4.0 SE 19 24 10 13 1012.6 1012.6 0.0
26/02:00pm 19.5 17.4 11.0 58 4.6 ESE 13 20 7 11 1012.9 1012.9 0.0
26/01:30pm 19.0 17.5 10.6 58 4.5 NNE 9 13 5 7 1013.6 1013.6 0.0
26/01:00pm 18.1 16.4 11.2 64 3.7 E 11 19 6 10 1013.1 1013.1 0.0
26/12:30pm 17.2 14.0 9.9 62 3.8 ENE 17 20 9 11 1013.3 1013.3 0.0
26/12:00pm 16.7 14.8 9.1 61 3.9 SSE 9 13 5 7 1014.0 1014.0 0.0
26/11:30am 16.5 13.9 9.4 63 3.7 E 13 17 7 9 1014.3 1014.3 0.0
26/11:00am 15.9 14.0 9.1 64 3.5 S 9 15 5 8 1014.5 1014.5 0.0
26/10:30am 15.8 13.5 9.0 64 3.5 S 11 15 6 8 1014.9 1014.9 0.0
26/10:00am 15.0 13.1 8.9 67 3.1 S 9 13 5 7 1014.9 1014.9 0.0
26/09:30am 14.5 12.6 9.1 70 2.8 S 9 13 5 7 1014.7 1014.7 0.0
26/09:00am 14.4 13.0 9.4 72 2.6 SSW 7 11 4 6 1014.6 1014.6 0.0
26/08:30am 14.0 12.5 9.0 72 2.5 WSW 7 9 4 5 1014.8 1014.8 0.0
26/08:00am 13.8 13.3 9.3 74 2.3 SSE 2 7 1 4 1014.4 1014.4 0.0
26/07:30am 13.4 12.7 8.7 73 2.4 E 2 6 1 3 1014.2 1014.2 0.0
26/07:00am 13.3 11.7 8.8 74 2.3 S 7 11 4 6 1013.8 1013.8 0.0
26/06:30am 13.1 11.2 9.0 76 2.1 S 9 11 5 6 1014.0 1014.0 0.0
26/06:00am 13.1 11.6 9.0 76 2.1 SSW 7 11 4 6 1013.8 1013.8 0.0
26/05:30am 13.2 11.3 9.1 76 2.1 SSW 9 11 5 6 1013.5 1013.5 0.0
26/05:00am 13.2 10.9 8.9 75 2.2 SSW 11 15 6 8 1013.8 1013.8 0.0
26/04:30am 13.3 11.0 9.0 75 2.2 S 11 13 6 7 1013.7 1013.7 0.0
26/04:00am 13.4 10.7 9.1 75 2.2 S 13 17 7 9 1013.6 1013.6 0.0
26/03:30am 13.5 11.3 9.4 76 2.1 S 11 15 6 8 1013.7 1013.7 0.0
26/03:00am 13.5 11.4 9.6 77 2.0 SSE 11 13 6 7 1013.8 1013.8 0.0
26/02:30am 13.6 11.8 9.6 77 2.0 S 9 11 5 6 1014.1 1014.1 0.0
26/02:00am 13.6 11.9 10.0 79 1.9 SSE 9 11 5 6 1014.0 1014.0 0.0
26/01:30am 13.6 12.5 10.0 79 1.9 SE 6 7 3 4 1015.0 1015.0 0.0
26/01:00am 13.7 12.6 10.1 79 1.9 S 6 7 3 4 1015.5 1015.5 0.0
26/12:30am 13.7 12.4 9.9 78 2.0 SE 7 9 4 5 1015.4 1015.4 0.0
26/12:00am 13.7 12.0 9.7 77 2.1 SSE 9 11 5 6 1015.9 1015.9 0.0
 
Date/Time
EDT
Temp
°C
App
Temp
°C
Dew
Point
Rel
Hum
%
Delta-T
°C
Wind Press
QNH
hPa
Press
MSL
hPa
Rain
since 9 am
mm
Dir
 
Spd
km/h
Gust
km/h
Spd
kts
Gust
kts
25/11:30pm 13.8 12.0 9.6 76 2.2 SSE 9 11 5 6 1016.2 1016.2 0.0
25/11:00pm 13.9 11.7 9.5 75 2.2 SE 11 13 6 7 1016.6 1016.6 0.0
25/10:30pm 14.0 11.9 9.6 75 2.3 SSE 11 17 6 9 1016.8 1016.8 0.0
25/10:00pm 14.0 11.5 9.6 75 2.3 S 13 17 7 9 1017.0 1017.0 0.0
25/09:30pm 13.3 11.6 9.9 80 1.7 SSE 9 13 5 7 1016.9 1016.9 0.0
25/09:00pm 11.8 9.4 8.8 82 1.5 S 11 13 6 7 1016.6 1016.6 0.0
25/08:30pm 12.6 10.1 9.6 82 1.5 SSE 13 15 7 8 1016.2 1016.2 0.0
25/08:00pm 13.0 10.7 9.1 77 2.0 S 11 15 6 8 1016.3 1016.3 0.0
25/07:30pm 14.2 10.9 9.4 73 2.5 S 17 22 9 12 1015.9 1015.9 0.0
25/07:00pm 15.0 11.2 9.1 68 3.0 S 19 24 10 13 1015.9 1015.9 0.0
25/06:30pm 15.1 10.8 9.2 68 3.0 S 22 30 12 16 1015.7 1015.7 0.0
25/06:00pm 16.0 11.4 9.7 66 3.3 S 24 30 13 16 1015.6 1015.6 0.0
25/05:30pm 16.9 12.3 9.8 63 3.7 S 24 32 13 17 1015.3 1015.3 0.0
25/05:00pm 17.3 12.1 10.2 63 3.8 S 28 35 15 19 1015.2 1015.2 0.0
25/04:30pm 17.3 12.0 10.0 62 3.9 S 28 35 15 19 1015.2 1015.2 0.0
25/04:00pm 19.0 14.8 11.1 60 4.3 S 24 32 13 17 1015.1 1015.1 0.0
25/03:30pm 18.4 15.0 10.7 61 4.1 SSE 19 26 10 14 1015.1 1015.1 0.0
25/03:00pm 18.1 14.0 10.2 60 4.2 SE 22 26 12 14 1015.3 1015.3 0.0
25/02:30pm 19.1 15.6 10.1 56 4.8 S 19 30 10 16 1015.8 1015.8 0.0
25/02:00pm 19.0 16.3 10.3 57 4.7 S 15 22 8 12 1016.0 1016.0 0.0
25/01:30pm 18.1 15.7 10.0 59 4.3 S 13 19 7 10 1016.3 1016.3 0.0
25/01:00pm 17.4 14.9 9.8 61 4.0 ESE 13 20 7 11 1016.5 1016.5 0.0
25/12:30pm 18.1 17.1 10.2 60 4.2 SE 6 15 3 8 1016.9 1016.9 0.0
25/12:00pm 16.8 15.3 10.4 66 3.4 E 9 13 5 7 1017.2 1017.2 0.0
25/11:30am 16.5 15.2 9.9 65 3.5 SSE 7 11 4 6 1017.7 1017.7 0.0
25/11:00am 16.2 14.6 10.1 67 3.2 SSE 9 13 5 7 1017.7 1017.7 0.0
25/10:30am 15.3 12.1 9.9 70 2.8 S 17 24 9 13 1017.7 1017.7 0.0
25/10:00am 15.6 12.6 10.6 72 2.6 S 17 20 9 11 1017.8 1017.8 0.0
25/09:30am 15.3 11.6 10.3 72 2.6 S 20 26 11 14 1017.8 1017.8 0.0
25/09:00am 14.7 11.5 10.1 74 2.4 S 17 20 9 11 1017.8 1017.8 0.0
25/08:30am 14.4 11.7 10.2 76 2.2 S 15 19 8 10 1017.9 1017.9 0.0
25/08:00am 14.2 13.1 10.8 80 1.8 S 7 11 4 6 1017.8 1017.8 0.0
25/07:30am 14.1 12.8 9.9 76 2.2 W 7 9 4 5 1017.5 1017.5 0.0
25/07:00am 14.0 12.9 9.8 76 2.2 W 6 7 3 4 1017.3 1017.3 0.0
25/06:30am 13.9 12.5 9.7 76 2.2 WNW 7 7 4 4 1017.1 1017.1 0.0
25/06:00am 13.9 12.5 9.7 76 2.2 W 7 9 4 5 1016.9 1016.9 0.0
25/05:30am 14.0 12.3 9.8 76 2.2 W 9 11 5 6 1016.7 1016.7 0.0
25/05:00am 14.1 11.9 9.5 74 2.4 WSW 11 15 6 8 1016.4 1016.4 0.0
25/04:30am 14.3 11.8 9.7 74 2.4 WSW 13 19 7 10 1016.3 1016.3 0.0
25/04:00am 14.5 12.0 9.7 73 2.5 W 13 17 7 9 1016.3 1016.3 0.0
25/03:30am 14.6 11.7 9.8 73 2.5 W 15 20 8 11 1016.2 1016.2 0.0
25/03:00am 14.6 11.8 10.0 74 2.4 W 15 20 8 11 1016.2 1016.2 0.0
25/02:30am 14.7 12.0 10.5 76 2.2 WSW 15 20 8 11 1016.4 1016.4 0.0
25/02:00am 14.6 11.3 10.8 78 2.0 WSW 19 24 10 13 1016.7 1016.7 0.0
25/01:30am 14.6 11.6 10.8 78 2.0 WSW 17 22 9 12 1016.7 1016.7 0.0
25/01:00am 14.5 10.7 11.1 80 1.8 WSW 22 30 12 16 1016.9 1016.9 0.0
25/12:30am 15.0 11.8 11.4 79 1.9 W 19 24 10 13 1016.8 1016.8 0.0
25/12:00am 15.1 12.8 11.7 80 1.8 W 15 20 8 11 1016.6 1016.6 0.0
 
Date/Time
EDT
Temp
°C
App
Temp
°C
Dew
Point
Rel
Hum
%
Delta-T
°C
Wind Press
QNH
hPa
Press
MSL
hPa
Rain
since 9 am
mm
Dir
 
Spd
km/h
Gust
km/h
Spd
kts
Gust
kts
24/11:30pm 15.0 11.7 11.6 80 1.8 W 20 28 11 15 1016.4 1016.4 0.0
24/11:00pm 14.5 12.2 11.6 83 1.6 W 15 20 8 11 1016.2 1016.2 0.0
24/10:30pm 15.3 13.2 12.4 83 1.6 W 15 19 8 10 1016.2 1016.2 0.0
24/10:00pm 14.8 13.6 12.8 88 1.1 WNW 11 17 6 9 1015.8 1015.8 0.0
24/09:30pm 14.2 15.0 12.6 90 0.9 CALM 0 0 0 0 1015.3 1015.3 0.0
24/09:00pm 14.5 13.7 12.9 90 0.9 S 9 11 5 6 1014.5 1014.5 0.0
24/08:30pm 14.9 13.0 13.1 89 1.0 SSW 15 17 8 9 1013.7 1013.7 0.0
24/08:23pm 15.1 13.7 13.3 89 1.0 S 13 20 7 11 1013.6 1013.6 0.0
24/08:00pm 15.8 13.8 14.0 89 1.0 S 17 24 9 13 1013.1 1013.1 0.0
24/07:30pm 15.9 13.5 14.3 90 0.9 S 20 24 11 13 1012.4 1012.4 0.0
24/07:26pm 15.9 13.1 14.3 90 0.9 S 22 32 12 17 1012.3 1012.3 0.0
24/07:00pm 16.9 13.6 14.0 83 1.6 S 24 28 13 15 1011.8 1011.8 0.0
24/06:30pm 19.3 16.4 13.9 71 3.1 S 22 28 12 15 1011.3 1011.3 0.0
24/06:00pm 21.4 19.0 14.3 64 4.1 S 20 26 11 14 1010.6 1010.6 0.0
24/05:30pm 22.9 19.9 14.7 60 4.9 S 24 30 13 16 1010.1 1010.1 0.0
24/05:00pm 24.6 20.4 14.7 54 5.9 S 30 35 16 19 1009.7 1009.7 0.0
24/04:47pm 26.1 22.2 13.2 44 7.5 SW 26 32 14 17 1009.5 1009.5 0.0
24/04:30pm 31.7 27.3 4.5 18 14.2 W 17 19 9 10 1009.3 1009.3 0.0
24/04:00pm 30.9 26.9 6.7 22 13.0 WSW 17 22 9 12 1009.2 1009.2 0.0
24/03:30pm 31.6 26.4 7.3 22 13.3 W 24 35 13 19 1009.4 1009.4 0.0
24/03:05pm 31.8 25.7 6.8 21 13.5 NW 28 46 15 25 1009.3 1009.3 0.0
24/03:00pm 31.9 26.8 7.5 22 13.4 W 24 37 13 20 1009.7 1009.7 0.0
24/02:30pm 31.1 27.8 8.2 24 12.6 W 15 26 8 14 1009.9 1009.9 0.0
24/02:00pm 30.0 28.2 12.0 33 10.5 WSW 13 26 7 14 1010.2 1010.2 0.0
24/01:30pm 29.1 27.5 12.9 37 9.6 SSW 13 26 7 14 1010.5 1010.5 0.0
24/01:00pm 25.9 24.6 15.9 54 6.1 ESE 17 20 9 11 1010.4 1010.4 0.0
24/12:30pm 24.2 23.5 16.5 62 4.7 ESE 15 19 8 10 1010.8 1010.8 0.0
24/12:00pm 24.0 23.6 16.3 62 4.7 SE 13 19 7 10 1011.1 1011.1 0.0
24/11:30am 24.6 23.9 15.5 57 5.5 W 13 20 7 11 1011.5 1011.5 0.0
24/11:00am 22.2 22.5 15.1 64 4.2 W 7 15 4 8 1011.7 1011.7 0.0
24/10:30am 20.2 20.8 15.2 73 2.9 NW 6 11 3 6 1011.7 1011.7 0.0
24/10:18am 19.2 19.8 15.9 81 2.0 ENE 7 13 4 7 1011.7 1011.7 0.0
24/10:00am 17.8 19.6 17.3 97 0.3 N 4 9 2 5 1012.0 1012.0 0.0
24/09:47am 16.4 17.4 16.4 100 0.0 N 6 9 3 5 1012.0 1012.0 0.0
24/09:30am 15.6 16.7 15.6 100 0.0 NW 4 7 2 4 1011.9 1011.9 0.0
24/09:00am 14.6 14.9 14.6 100 0.0 NNW 6 11 3 6 1011.9 1011.9 0.0
24/08:32am 14.5 14.6 14.5 100 0.0 NW 7 11 4 6 1012.4 1012.4 0.0
24/08:30am 14.4 14.5 14.4 100 0.0 NW 7 11 4 6 1012.4 1012.4 0.0
24/08:00am 14.2 14.2 14.2 100 0.0 NNW 7 9 4 5 1012.4 1012.4 0.0
24/07:30am 13.7 14.9 13.7 100 0.0 CALM 0 0 0 0 1012.2 1012.2 0.0
24/07:25am 13.4 14.5 13.4 100 0.0 CALM 0 0 0 0 1012.1 1012.1 0.0
24/07:24am 13.4 14.5 13.4 100 0.0 CALM 0 0 0 0 1012.1 1012.1 0.0
24/07:00am 11.6 12.0 11.4 99 0.1 CALM 0 0 0 0 1012.2 1012.2 0.0
24/06:54am 11.1 11.4 10.9 99 0.1 CALM 0 0 0 0 1012.2 1012.2 0.0
24/06:46am 10.8 11.0 10.6 99 0.1 CALM 0 0 0 0 1012.2 1012.2 0.0
24/06:30am 10.5 10.6 10.3 99 0.1 CALM 0 0 0 0 1012.2 1012.2 0.0
24/06:19am 10.2 10.3 10.0 99 0.1 CALM 0 0 0 0 1012.2 1012.2 0.0
24/06:00am 11.5 11.9 11.3 99 0.1 CALM 0 0 0 0 1012.1 1012.1 0.0
24/05:34am 10.9 11.1 10.7 99 0.1 CALM 0 0 0 0 1012.0 1012.0 0.0
24/05:30am 10.9 11.1 10.7 99 0.1 CALM 0 0 0 0 1012.0 1012.0 0.0
24/05:00am 10.3 10.3 9.8 97 0.3 CALM 0 0 0 0 1012.3 1012.3 0.0
24/04:56am 10.7 10.9 10.4 98 0.2 CALM 0 0 0 0 1012.3 1012.3 0.0
24/04:30am 12.4 12.3 12.2 99 0.1 SE 4 7 2 4 1012.4 1012.4 0.0
24/04:17am 12.3 11.8 12.1 99 0.1 SE 6 7 3 4 1012.4 1012.4 0.0
24/04:07am 12.5 12.0 12.2 98 0.2 ESE 6 7 3 4 1012.5 1012.5 0.0
24/04:01am 13.1 12.7 12.9 99 0.1 E 7 9 4 5 1012.5 1012.5 0.0
24/04:00am 13.0 12.5 12.7 98 0.2 E 7 9 4 5 1012.5 1012.5 0.0
24/03:30am 13.5 13.3 13.0 97 0.3 ESE 6 7 3 4 1012.8 1012.8 0.0
24/03:00am 14.0 13.0 13.5 97 0.3 ESE 11 13 6 7 1012.8 1012.8 0.0
24/02:30am 14.6 13.0 14.0 96 0.3 ESE 15 20 8 11 1013.1 1013.1 0.0
24/02:00am 14.8 12.8 14.0 95 0.4 SE 17 20 9 11 1013.6 1013.6 0.0
24/01:30am 15.0 13.0 13.9 93 0.6 SE 17 20 9 11 1014.3 1014.3 0.0
24/01:00am 15.2 12.8 13.9 92 0.7 SE 19 22 10 12 1014.6 1014.6 0.0
24/12:30am 15.4 13.4 13.9 91 0.8 ESE 17 20 9 11 1015.1 1015.1 0.0
24/12:01am 15.6 12.6 13.8 89 1.0 ESE 22 30 12 16 1015.2 1015.2 0.0
24/12:00am 15.6 12.6 13.8 89 1.0 ESE 22 30 12 16 1015.2 1015.2 0.0
 
Date/Time
EDT
Temp
°C
App
Temp
°C
Dew
Point
Rel
Hum
%
Delta-T
°C
Wind Press
QNH
hPa
Press
MSL
hPa
Rain
since 9 am
mm
Dir
 
Spd
km/h
Gust
km/h
Spd
kts
Gust
kts
23/11:30pm 15.7 12.7 13.7 88 1.1 SE 22 30 12 16 1015.6 1015.6 0.0
23/11:22pm 15.8 12.8 13.6 87 1.2 SE 22 30 12 16 1015.7 1015.7 0.0
23/11:00pm 16.1 13.1 13.6 85 1.4 SE 22 30 12 16 1016.0 1016.0 0.0
23/10:30pm 16.3 12.9 13.6 84 1.5 SE 24 33 13 18 1016.3 1016.3 0.0
23/10:00pm 16.4 12.2 13.5 83 1.6 SE 28 35 15 19 1016.5 1016.5 0.0
23/09:30pm 16.4 12.6 13.5 83 1.6 SE 26 35 14 19 1016.6 1016.6 0.0
23/09:00pm 16.4 12.5 13.3 82 1.7 SE 26 35 14 19 1016.5 1016.5 0.0
23/08:30pm 16.5 14.1 13.8 84 1.5 ESE 19 22 10 12 1016.3 1016.3 0.0
23/08:00pm 16.9 13.5 13.6 81 1.9 ESE 24 30 13 16 1016.2 1016.2 0.0
23/07:30pm 17.3 15.0 14.0 81 1.9 ESE 19 24 10 13 1016.1 1016.1 0.0
23/07:00pm 17.8 15.9 14.1 79 2.1 SE 17 24 9 13 1016.2 1016.2 0.0
23/06:30pm 18.1 16.7 14.4 79 2.1 SE 15 22 8 12 1016.1 1016.1 0.0

Other Formats:

Comma delimited format used in spreadsheet applications
http://www.bom.gov.au/fwo/IDV60801/IDV60801.94854.axf

JavaScript Object Notation format (JSON) in row-major order
http://www.bom.gov.au/fwo/IDV60801/IDV60801.94854.json